sensor_id;sensor_type;location;lat;lon;timestamp;temperature;humidity
57088;DHT22;42965;52.846;6.614;2022-10-16T00:00:41;12.10;99.90
57088;DHT22;42965;52.846;6.614;2022-10-16T00:03:09;12.20;99.90
57088;DHT22;42965;52.846;6.614;2022-10-16T00:05:40;12.20;99.90
57088;DHT22;42965;52.846;6.614;2022-10-16T00:08:08;12.20;99.90
57088;DHT22;42965;52.846;6.614;2022-10-16T00:10:35;12.30;99.90
57088;DHT22;42965;52.846;6.614;2022-10-16T00:13:03;12.30;99.90
57088;DHT22;42965;52.846;6.614;2022-10-16T00:15:29;12.30;99.90
57088;DHT22;42965;52.846;6.614;2022-10-16T00:17:56;12.30;99.90
57088;DHT22;42965;52.846;6.614;2022-10-16T00:20:22;12.20;99.90
57088;DHT22;42965;52.846;6.614;2022-10-16T00:23:07;12.20;99.90
57088;DHT22;42965;52.846;6.614;2022-10-16T00:25:34;12.20;99.90
57088;DHT22;42965;52.846;6.614;2022-10-16T00:28:00;12.10;99.90
57088;DHT22;42965;52.846;6.614;2022-10-16T00:30:27;12.10;99.90
57088;DHT22;42965;52.846;6.614;2022-10-16T00:32:54;12.10;99.90
57088;DHT22;42965;52.846;6.614;2022-10-16T00:35:20;12.10;99.90
57088;DHT22;42965;52.846;6.614;2022-10-16T00:37:47;12.00;99.90
57088;DHT22;42965;52.846;6.614;2022-10-16T00:40:13;12.00;99.90
57088;DHT22;42965;52.846;6.614;2022-10-16T00:42:40;12.00;99.90
57088;DHT22;42965;52.846;6.614;2022-10-16T00:45:08;12.00;99.90
57088;DHT22;42965;52.846;6.614;2022-10-16T00:47:40;12.00;99.90
57088;DHT22;42965;52.846;6.614;2022-10-16T00:50:15;12.00;99.90
57088;DHT22;42965;52.846;6.614;2022-10-16T00:52:46;12.00;99.90
57088;DHT22;42965;52.846;6.614;2022-10-16T00:55:13;12.00;99.90
57088;DHT22;42965;52.846;6.614;2022-10-16T00:57:41;11.90;99.90
57088;DHT22;42965;52.846;6.614;2022-10-16T01:00:11;11.90;99.90
57088;DHT22;42965;52.846;6.614;2022-10-16T01:02:37;11.90;99.90
57088;DHT22;42965;52.846;6.614;2022-10-16T01:05:04;11.90;99.90
57088;DHT22;42965;52.846;6.614;2022-10-16T01:13:10;12.00;99.90
57088;DHT22;42965;52.846;6.614;2022-10-16T01:18:34;12.00;99.90
57088;DHT22;42965;52.846;6.614;2022-10-16T01:21:05;12.00;99.90
57088;DHT22;42965;52.846;6.614;2022-10-16T01:23:45;12.10;99.90
57088;DHT22;42965;52.846;6.614;2022-10-16T01:29:18;12.10;99.90
57088;DHT22;42965;52.846;6.614;2022-10-16T01:31:55;12.10;99.90
57088;DHT22;42965;52.846;6.614;2022-10-16T01:35:02;12.20;99.90
57088;DHT22;42965;52.846;6.614;2022-10-16T01:37:33;12.10;99.90
57088;DHT22;42965;52.846;6.614;2022-10-16T01:40:06;12.20;99.90
57088;DHT22;42965;52.846;6.614;2022-10-16T01:42:40;12.20;99.90
57088;DHT22;42965;52.846;6.614;2022-10-16T01:45:08;12.20;99.90
57088;DHT22;42965;52.846;6.614;2022-10-16T01:47:37;12.10;99.90
57088;DHT22;42965;52.846;6.614;2022-10-16T01:50:06;12.20;99.90
57088;DHT22;42965;52.846;6.614;2022-10-16T01:52:37;12.20;99.90
57088;DHT22;42965;52.846;6.614;2022-10-16T01:55:06;12.20;99.90
57088;DHT22;42965;52.846;6.614;2022-10-16T01:57:36;12.20;99.90
57088;DHT22;42965;52.846;6.614;2022-10-16T02:00:09;12.20;99.90
57088;DHT22;42965;52.846;6.614;2022-10-16T02:02:41;12.30;99.90
57088;DHT22;42965;52.846;6.614;2022-10-16T02:05:21;12.30;99.90
57088;DHT22;42965;52.846;6.614;2022-10-16T02:07:50;12.30;99.90
57088;DHT22;42965;52.846;6.614;2022-10-16T02:10:17;12.30;99.90
57088;DHT22;42965;52.846;6.614;2022-10-16T02:13:00;12.30;99.90
57088;DHT22;42965;52.846;6.614;2022-10-16T02:15:28;12.30;99.90
57088;DHT22;42965;52.846;6.614;2022-10-16T02:17:55;12.40;99.90
57088;DHT22;42965;52.846;6.614;2022-10-16T02:20:27;12.40;99.90
57088;DHT22;42965;52.846;6.614;2022-10-16T02:22:56;12.40;99.90
57088;DHT22;42965;52.846;6.614;2022-10-16T02:25:43;12.40;99.90
57088;DHT22;42965;52.846;6.614;2022-10-16T02:28:19;12.40;99.90
57088;DHT22;42965;52.846;6.614;2022-10-16T02:30:58;12.40;99.90
57088;DHT22;42965;52.846;6.614;2022-10-16T02:33:27;12.40;99.90
57088;DHT22;42965;52.846;6.614;2022-10-16T02:35:55;12.50;99.90
57088;DHT22;42965;52.846;6.614;2022-10-16T02:38:24;12.50;99.90
57088;DHT22;42965;52.846;6.614;2022-10-16T02:40:51;12.50;99.90
57088;DHT22;42965;52.846;6.614;2022-10-16T02:43:18;12.50;99.90
57088;DHT22;42965;52.846;6.614;2022-10-16T02:45:45;12.60;99.90
57088;DHT22;42965;52.846;6.614;2022-10-16T02:48:12;12.60;99.90
57088;DHT22;42965;52.846;6.614;2022-10-16T02:50:38;12.60;99.90
57088;DHT22;42965;52.846;6.614;2022-10-16T02:53:05;12.60;99.90
57088;DHT22;42965;52.846;6.614;2022-10-16T02:55:31;12.70;99.90
57088;DHT22;42965;52.846;6.614;2022-10-16T02:57:59;12.70;99.90
57088;DHT22;42965;52.846;6.614;2022-10-16T03:00:26;12.70;99.90
57088;DHT22;42965;52.846;6.614;2022-10-16T03:02:54;12.70;99.90
57088;DHT22;42965;52.846;6.614;2022-10-16T03:05:20;12.70;99.90
57088;DHT22;42965;52.846;6.614;2022-10-16T03:07:47;12.70;99.90
57088;DHT22;42965;52.846;6.614;2022-10-16T03:10:14;12.80;99.90
57088;DHT22;42965;52.846;6.614;2022-10-16T03:12:40;12.80;99.90
57088;DHT22;42965;52.846;6.614;2022-10-16T03:15:07;12.80;99.90
57088;DHT22;42965;52.846;6.614;2022-10-16T03:17:34;12.80;99.90
57088;DHT22;42965;52.846;6.614;2022-10-16T03:20:03;12.70;99.90
57088;DHT22;42965;52.846;6.614;2022-10-16T03:22:29;12.80;99.90
57088;DHT22;42965;52.846;6.614;2022-10-16T03:24:56;12.80;99.90
57088;DHT22;42965;52.846;6.614;2022-10-16T03:27:23;12.80;99.90
57088;DHT22;42965;52.846;6.614;2022-10-16T03:29:49;12.80;99.90
57088;DHT22;42965;52.846;6.614;2022-10-16T03:32:16;12.90;99.90
57088;DHT22;42965;52.846;6.614;2022-10-16T03:34:42;12.80;99.90
57088;DHT22;42965;52.846;6.614;2022-10-16T03:37:10;12.80;99.90
57088;DHT22;42965;52.846;6.614;2022-10-16T03:39:36;12.80;99.90
57088;DHT22;42965;52.846;6.614;2022-10-16T03:42:03;12.80;99.90
57088;DHT22;42965;52.846;6.614;2022-10-16T03:44:30;12.80;99.90
57088;DHT22;42965;52.846;6.614;2022-10-16T03:46:56;12.80;99.90
57088;DHT22;42965;52.846;6.614;2022-10-16T03:49:23;12.70;99.90
57088;DHT22;42965;52.846;6.614;2022-10-16T03:51:49;12.80;99.90
57088;DHT22;42965;52.846;6.614;2022-10-16T03:54:16;12.70;99.90
57088;DHT22;42965;52.846;6.614;2022-10-16T03:56:42;12.80;99.90
57088;DHT22;42965;52.846;6.614;2022-10-16T03:59:09;12.70;99.90
57088;DHT22;42965;52.846;6.614;2022-10-16T04:01:36;12.70;99.90
57088;DHT22;42965;52.846;6.614;2022-10-16T04:04:02;12.60;99.90
57088;DHT22;42965;52.846;6.614;2022-10-16T04:06:29;12.50;99.90
57088;DHT22;42965;52.846;6.614;2022-10-16T04:08:55;12.50;99.90
57088;DHT22;42965;52.846;6.614;2022-10-16T04:11:22;12.40;99.90
57088;DHT22;42965;52.846;6.614;2022-10-16T04:13:48;12.50;99.90
57088;DHT22;42965;52.846;6.614;2022-10-16T04:16:15;12.40;99.90
57088;DHT22;42965;52.846;6.614;2022-10-16T04:18:41;12.40;99.90
57088;DHT22;42965;52.846;6.614;2022-10-16T04:21:09;12.40;99.90
57088;DHT22;42965;52.846;6.614;2022-10-16T04:23:35;12.40;99.90
57088;DHT22;42965;52.846;6.614;2022-10-16T04:26:02;12.30;99.90
57088;DHT22;42965;52.846;6.614;2022-10-16T04:28:29;12.30;99.90
57088;DHT22;42965;52.846;6.614;2022-10-16T04:30:56;12.30;99.90
57088;DHT22;42965;52.846;6.614;2022-10-16T04:33:22;12.20;99.90
57088;DHT22;42965;52.846;6.614;2022-10-16T04:35:56;12.20;99.90
57088;DHT22;42965;52.846;6.614;2022-10-16T04:38:22;12.20;99.90
57088;DHT22;42965;52.846;6.614;2022-10-16T04:40:49;12.20;99.90
57088;DHT22;42965;52.846;6.614;2022-10-16T04:43:16;12.10;99.90
57088;DHT22;42965;52.846;6.614;2022-10-16T04:45:42;12.10;99.90
57088;DHT22;42965;52.846;6.614;2022-10-16T04:48:09;12.10;99.90
57088;DHT22;42965;52.846;6.614;2022-10-16T04:50:36;12.10;99.90
57088;DHT22;42965;52.846;6.614;2022-10-16T04:53:06;12.20;99.90
57088;DHT22;42965;52.846;6.614;2022-10-16T04:55:33;12.20;99.90
57088;DHT22;42965;52.846;6.614;2022-10-16T04:57:59;12.20;99.90
57088;DHT22;42965;52.846;6.614;2022-10-16T05:00:26;12.30;99.90
57088;DHT22;42965;52.846;6.614;2022-10-16T05:02:53;12.30;99.90
57088;DHT22;42965;52.846;6.614;2022-10-16T05:05:19;12.30;99.90
57088;DHT22;42965;52.846;6.614;2022-10-16T05:07:47;12.30;99.90
57088;DHT22;42965;52.846;6.614;2022-10-16T05:10:16;12.30;99.90
57088;DHT22;42965;52.846;6.614;2022-10-16T05:12:43;12.40;99.90
57088;DHT22;42965;52.846;6.614;2022-10-16T05:15:10;12.40;99.90
57088;DHT22;42965;52.846;6.614;2022-10-16T05:17:37;12.30;99.90
57088;DHT22;42965;52.846;6.614;2022-10-16T05:20:04;12.30;99.90
57088;DHT22;42965;52.846;6.614;2022-10-16T05:22:32;12.30;99.90
57088;DHT22;42965;52.846;6.614;2022-10-16T05:24:58;12.30;99.90
57088;DHT22;42965;52.846;6.614;2022-10-16T05:27:24;12.30;99.90
57088;DHT22;42965;52.846;6.614;2022-10-16T05:29:51;12.30;99.90
57088;DHT22;42965;52.846;6.614;2022-10-16T05:32:18;12.20;99.90
57088;DHT22;42965;52.846;6.614;2022-10-16T05:34:45;12.20;99.90
57088;DHT22;42965;52.846;6.614;2022-10-16T05:37:12;12.20;99.90
57088;DHT22;42965;52.846;6.614;2022-10-16T05:39:39;12.20;99.90
57088;DHT22;42965;52.846;6.614;2022-10-16T05:42:05;12.20;99.90
57088;DHT22;42965;52.846;6.614;2022-10-16T05:44:32;12.20;99.90
57088;DHT22;42965;52.846;6.614;2022-10-16T05:46:59;12.20;99.90
57088;DHT22;42965;52.846;6.614;2022-10-16T05:49:25;12.20;99.90
57088;DHT22;42965;52.846;6.614;2022-10-16T05:51:52;12.30;99.90
57088;DHT22;42965;52.846;6.614;2022-10-16T05:54:18;12.30;99.90
57088;DHT22;42965;52.846;6.614;2022-10-16T05:56:45;12.30;99.90
57088;DHT22;42965;52.846;6.614;2022-10-16T05:59:12;12.30;99.90
57088;DHT22;42965;52.846;6.614;2022-10-16T06:01:38;12.30;99.90
57088;DHT22;42965;52.846;6.614;2022-10-16T06:04:05;12.30;99.90
57088;DHT22;42965;52.846;6.614;2022-10-16T06:06:31;12.30;99.90
57088;DHT22;42965;52.846;6.614;2022-10-16T06:08:58;12.30;99.90
57088;DHT22;42965;52.846;6.614;2022-10-16T06:11:27;12.30;99.90
57088;DHT22;42965;52.846;6.614;2022-10-16T06:13:56;12.30;99.90
57088;DHT22;42965;52.846;6.614;2022-10-16T06:16:26;12.30;99.90
57088;DHT22;42965;52.846;6.614;2022-10-16T06:18:54;12.30;99.90
57088;DHT22;42965;52.846;6.614;2022-10-16T06:21:24;12.30;99.90
57088;DHT22;42965;52.846;6.614;2022-10-16T06:23:55;12.30;99.90
57088;DHT22;42965;52.846;6.614;2022-10-16T06:26:24;12.40;99.90
57088;DHT22;42965;52.846;6.614;2022-10-16T06:28:50;12.40;99.90
57088;DHT22;42965;52.846;6.614;2022-10-16T06:31:17;12.40;99.90
57088;DHT22;42965;52.846;6.614;2022-10-16T06:33:44;12.40;99.90
57088;DHT22;42965;52.846;6.614;2022-10-16T06:36:15;12.50;99.90
57088;DHT22;42965;52.846;6.614;2022-10-16T06:38:42;12.50;99.90
57088;DHT22;42965;52.846;6.614;2022-10-16T06:41:12;12.50;99.90
57088;DHT22;42965;52.846;6.614;2022-10-16T06:43:38;12.50;99.90
57088;DHT22;42965;52.846;6.614;2022-10-16T06:46:07;12.60;99.90
57088;DHT22;42965;52.846;6.614;2022-10-16T06:48:35;12.60;99.90
57088;DHT22;42965;52.846;6.614;2022-10-16T06:51:20;12.60;99.90
57088;DHT22;42965;52.846;6.614;2022-10-16T06:53:52;12.70;99.90
57088;DHT22;42965;52.846;6.614;2022-10-16T06:56:25;12.70;99.90
57088;DHT22;42965;52.846;6.614;2022-10-16T06:58:52;12.70;99.90
57088;DHT22;42965;52.846;6.614;2022-10-16T07:01:22;12.70;99.90
57088;DHT22;42965;52.846;6.614;2022-10-16T07:03:49;12.70;99.90
57088;DHT22;42965;52.846;6.614;2022-10-16T07:06:21;12.70;99.90
57088;DHT22;42965;52.846;6.614;2022-10-16T07:08:48;12.80;99.90
57088;DHT22;42965;52.846;6.614;2022-10-16T07:11:19;12.80;99.90
57088;DHT22;42965;52.846;6.614;2022-10-16T07:13:47;12.80;99.90
57088;DHT22;42965;52.846;6.614;2022-10-16T07:16:16;12.80;99.90
57088;DHT22;42965;52.846;6.614;2022-10-16T07:18:44;12.90;99.90
57088;DHT22;42965;52.846;6.614;2022-10-16T07:21:18;12.90;99.90
57088;DHT22;42965;52.846;6.614;2022-10-16T07:23:50;13.00;99.90
57088;DHT22;42965;52.846;6.614;2022-10-16T07:26:17;13.00;99.90
57088;DHT22;42965;52.846;6.614;2022-10-16T07:28:44;13.10;99.90
57088;DHT22;42965;52.846;6.614;2022-10-16T07:31:13;13.10;99.90
57088;DHT22;42965;52.846;6.614;2022-10-16T07:33:41;13.20;99.90
57088;DHT22;42965;52.846;6.614;2022-10-16T07:36:09;13.30;99.90
57088;DHT22;42965;52.846;6.614;2022-10-16T07:38:35;13.30;99.90
57088;DHT22;42965;52.846;6.614;2022-10-16T07:41:06;13.40;99.90
57088;DHT22;42965;52.846;6.614;2022-10-16T07:43:33;13.40;99.90
57088;DHT22;42965;52.846;6.614;2022-10-16T07:46:00;13.40;99.90
57088;DHT22;42965;52.846;6.614;2022-10-16T07:48:28;13.40;99.90
57088;DHT22;42965;52.846;6.614;2022-10-16T07:51:05;13.40;99.90
57088;DHT22;42965;52.846;6.614;2022-10-16T07:53:33;13.40;99.90
57088;DHT22;42965;52.846;6.614;2022-10-16T07:56:05;13.40;99.90
57088;DHT22;42965;52.846;6.614;2022-10-16T07:58:32;13.40;99.90
57088;DHT22;42965;52.846;6.614;2022-10-16T08:01:03;13.40;99.90
57088;DHT22;42965;52.846;6.614;2022-10-16T08:03:30;13.50;99.90
57088;DHT22;42965;52.846;6.614;2022-10-16T08:05:57;13.50;99.90
57088;DHT22;42965;52.846;6.614;2022-10-16T08:08:23;13.60;99.90
57088;DHT22;42965;52.846;6.614;2022-10-16T08:10:50;13.70;99.90
57088;DHT22;42965;52.846;6.614;2022-10-16T08:13:16;13.70;99.90
57088;DHT22;42965;52.846;6.614;2022-10-16T08:15:45;13.90;99.90
57088;DHT22;42965;52.846;6.614;2022-10-16T08:18:13;14.00;99.90
57088;DHT22;42965;52.846;6.614;2022-10-16T08:20:42;14.20;99.90
57088;DHT22;42965;52.846;6.614;2022-10-16T08:23:12;14.30;99.90
57088;DHT22;42965;52.846;6.614;2022-10-16T08:25:40;14.20;99.90
57088;DHT22;42965;52.846;6.614;2022-10-16T08:28:09;14.30;99.90
57088;DHT22;42965;52.846;6.614;2022-10-16T08:30:36;14.30;99.90
57088;DHT22;42965;52.846;6.614;2022-10-16T08:33:03;14.40;99.90
57088;DHT22;42965;52.846;6.614;2022-10-16T08:35:30;14.60;99.90
57088;DHT22;42965;52.846;6.614;2022-10-16T08:37:56;14.70;99.90
57088;DHT22;42965;52.846;6.614;2022-10-16T08:40:28;15.10;99.90
57088;DHT22;42965;52.846;6.614;2022-10-16T08:43:14;15.20;99.90
57088;DHT22;42965;52.846;6.614;2022-10-16T08:51:02;15.30;99.90
57088;DHT22;42965;52.846;6.614;2022-10-16T08:53:33;15.50;99.90
57088;DHT22;42965;52.846;6.614;2022-10-16T08:56:02;15.80;99.90
57088;DHT22;42965;52.846;6.614;2022-10-16T08:58:30;16.20;99.90
57088;DHT22;42965;52.846;6.614;2022-10-16T09:01:00;16.80;99.90
57088;DHT22;42965;52.846;6.614;2022-10-16T09:05:56;17.90;99.90
57088;DHT22;42965;52.846;6.614;2022-10-16T09:14:23;18.50;99.90
57088;DHT22;42965;52.846;6.614;2022-10-16T09:17:00;18.80;99.90
57088;DHT22;42965;52.846;6.614;2022-10-16T09:19:38;19.30;99.90
57088;DHT22;42965;52.846;6.614;2022-10-16T09:22:15;19.30;99.90
57088;DHT22;42965;52.846;6.614;2022-10-16T09:24:41;19.30;99.90
57088;DHT22;42965;52.846;6.614;2022-10-16T09:27:11;19.30;99.90
57088;DHT22;42965;52.846;6.614;2022-10-16T09:29:39;19.40;99.90
57088;DHT22;42965;52.846;6.614;2022-10-16T09:32:27;19.30;99.90
57088;DHT22;42965;52.846;6.614;2022-10-16T09:34:55;19.40;99.90
57088;DHT22;42965;52.846;6.614;2022-10-16T09:37:24;19.70;99.90
57088;DHT22;42965;52.846;6.614;2022-10-16T09:39:52;19.70;99.90
57088;DHT22;42965;52.846;6.614;2022-10-16T09:42:30;20.00;99.90
57088;DHT22;42965;52.846;6.614;2022-10-16T09:44:58;20.00;99.90
57088;DHT22;42965;52.846;6.614;2022-10-16T09:47:26;20.00;99.90
57088;DHT22;42965;52.846;6.614;2022-10-16T09:49:59;20.50;99.90
57088;DHT22;42965;52.846;6.614;2022-10-16T09:52:31;20.00;99.90
57088;DHT22;42965;52.846;6.614;2022-10-16T09:55:00;20.10;99.90
57088;DHT22;42965;52.846;6.614;2022-10-16T09:57:27;20.00;99.90
57088;DHT22;42965;52.846;6.614;2022-10-16T09:59:56;20.20;99.90
57088;DHT22;42965;52.846;6.614;2022-10-16T10:02:43;20.20;99.90
57088;DHT22;42965;52.846;6.614;2022-10-16T10:05:26;20.50;99.90
57088;DHT22;42965;52.846;6.614;2022-10-16T10:08:00;20.60;99.90
57088;DHT22;42965;52.846;6.614;2022-10-16T10:10:41;20.70;99.90
57088;DHT22;42965;52.846;6.614;2022-10-16T10:13:28;20.20;99.90
57088;DHT22;42965;52.846;6.614;2022-10-16T10:15:55;20.90;99.90
57088;DHT22;42965;52.846;6.614;2022-10-16T10:18:22;20.60;99.90
57088;DHT22;42965;52.846;6.614;2022-10-16T10:21:03;20.20;99.90
57088;DHT22;42965;52.846;6.614;2022-10-16T10:23:31;20.60;99.90
57088;DHT22;42965;52.846;6.614;2022-10-16T10:26:18;21.40;99.90
57088;DHT22;42965;52.846;6.614;2022-10-16T10:29:06;21.20;99.90
57088;DHT22;42965;52.846;6.614;2022-10-16T10:40:45;19.80;99.90
57088;DHT22;42965;52.846;6.614;2022-10-16T10:43:14;20.50;99.90
57088;DHT22;42965;52.846;6.614;2022-10-16T10:45:55;21.30;99.90
57088;DHT22;42965;52.846;6.614;2022-10-16T10:51:33;21.90;99.90
57088;DHT22;42965;52.846;6.614;2022-10-16T10:54:25;21.90;99.90
57088;DHT22;42965;52.846;6.614;2022-10-16T10:57:02;20.90;99.90
57088;DHT22;42965;52.846;6.614;2022-10-16T10:59:55;20.80;99.90
57088;DHT22;42965;52.846;6.614;2022-10-16T11:05:31;20.20;99.90
57088;DHT22;42965;52.846;6.614;2022-10-16T11:13:28;20.80;99.90
57088;DHT22;42965;52.846;6.614;2022-10-16T11:16:48;20.50;99.90
57088;DHT22;42965;52.846;6.614;2022-10-16T11:21:41;21.20;99.90
57088;DHT22;42965;52.846;6.614;2022-10-16T11:24:35;21.70;99.90
57088;DHT22;42965;52.846;6.614;2022-10-16T11:27:08;22.20;99.90
57088;DHT22;42965;52.846;6.614;2022-10-16T11:29:45;22.70;99.90
57088;DHT22;42965;52.846;6.614;2022-10-16T11:32:28;22.20;99.90
57088;DHT22;42965;52.846;6.614;2022-10-16T11:35:06;21.00;99.90
57088;DHT22;42965;52.846;6.614;2022-10-16T11:37:42;20.00;99.90
57088;DHT22;42965;52.846;6.614;2022-10-16T11:42:59;21.30;99.90
57088;DHT22;42965;52.846;6.614;2022-10-16T11:45:42;21.50;99.90
57088;DHT22;42965;52.846;6.614;2022-10-16T11:50:48;21.30;99.90
57088;DHT22;42965;52.846;6.614;2022-10-16T11:55:56;22.90;99.90
57088;DHT22;42965;52.846;6.614;2022-10-16T12:01:26;22.60;97.40
57088;DHT22;42965;52.846;6.614;2022-10-16T12:07:04;22.80;97.80
57088;DHT22;42965;52.846;6.614;2022-10-16T12:09:34;22.50;97.70
57088;DHT22;42965;52.846;6.614;2022-10-16T12:12:02;21.90;96.60
57088;DHT22;42965;52.846;6.614;2022-10-16T12:17:02;22.60;97.30
57088;DHT22;42965;52.846;6.614;2022-10-16T12:19:32;23.10;95.90
57088;DHT22;42965;52.846;6.614;2022-10-16T12:22:00;22.70;95.80
57088;DHT22;42965;52.846;6.614;2022-10-16T12:24:43;22.20;95.40
57088;DHT22;42965;52.846;6.614;2022-10-16T12:27:31;22.40;95.20
57088;DHT22;42965;52.846;6.614;2022-10-16T12:30:04;22.80;96.10
57088;DHT22;42965;52.846;6.614;2022-10-16T12:32:40;23.10;95.00
57088;DHT22;42965;52.846;6.614;2022-10-16T12:35:18;22.40;93.50
57088;DHT22;42965;52.846;6.614;2022-10-16T12:37:45;21.90;94.60
57088;DHT22;42965;52.846;6.614;2022-10-16T12:40:15;22.80;95.00
57088;DHT22;42965;52.846;6.614;2022-10-16T12:42:42;23.10;93.60
57088;DHT22;42965;52.846;6.614;2022-10-16T12:45:29;23.30;93.10
57088;DHT22;42965;52.846;6.614;2022-10-16T12:47:58;23.40;91.70
57088;DHT22;42965;52.846;6.614;2022-10-16T12:50:32;23.60;92.40
57088;DHT22;42965;52.846;6.614;2022-10-16T12:53:01;24.00;91.70
57088;DHT22;42965;52.846;6.614;2022-10-16T12:55:35;24.10;91.90
57088;DHT22;42965;52.846;6.614;2022-10-16T12:58:38;24.40;91.90
57088;DHT22;42965;52.846;6.614;2022-10-16T13:01:17;24.30;87.00
57088;DHT22;42965;52.846;6.614;2022-10-16T13:12:12;24.00;84.60
57088;DHT22;42965;52.846;6.614;2022-10-16T13:28:31;24.40;83.10
57088;DHT22;42965;52.846;6.614;2022-10-16T13:30:59;24.00;81.40
57088;DHT22;42965;52.846;6.614;2022-10-16T13:33:35;24.20;82.70
57088;DHT22;42965;52.846;6.614;2022-10-16T13:36:03;23.60;86.10
57088;DHT22;42965;52.846;6.614;2022-10-16T13:38:32;22.80;89.60
57088;DHT22;42965;52.846;6.614;2022-10-16T13:41:04;22.00;92.90
57088;DHT22;42965;52.846;6.614;2022-10-16T13:43:42;21.10;95.90
57088;DHT22;42965;52.846;6.614;2022-10-16T13:46:20;20.90;99.90
57088;DHT22;42965;52.846;6.614;2022-10-16T13:49:04;21.20;99.90
57088;DHT22;42965;52.846;6.614;2022-10-16T13:51:32;21.70;99.90
57088;DHT22;42965;52.846;6.614;2022-10-16T13:53:59;21.70;99.80
57088;DHT22;42965;52.846;6.614;2022-10-16T13:56:27;21.30;99.90
57088;DHT22;42965;52.846;6.614;2022-10-16T13:59:04;21.10;99.90
57088;DHT22;42965;52.846;6.614;2022-10-16T14:01:43;21.10;99.90
57088;DHT22;42965;52.846;6.614;2022-10-16T14:04:12;21.60;99.90
57088;DHT22;42965;52.846;6.614;2022-10-16T14:06:46;22.10;99.90
57088;DHT22;42965;52.846;6.614;2022-10-16T14:09:22;22.40;99.90
57088;DHT22;42965;52.846;6.614;2022-10-16T14:11:52;22.70;99.50
57088;DHT22;42965;52.846;6.614;2022-10-16T14:14:19;21.90;99.90
57088;DHT22;42965;52.846;6.614;2022-10-16T14:16:47;21.30;99.90
57088;DHT22;42965;52.846;6.614;2022-10-16T14:19:25;20.70;99.90
57088;DHT22;42965;52.846;6.614;2022-10-16T14:21:53;20.70;99.90
57088;DHT22;42965;52.846;6.614;2022-10-16T14:24:31;20.90;99.90
57088;DHT22;42965;52.846;6.614;2022-10-16T14:26:58;21.10;99.90
57088;DHT22;42965;52.846;6.614;2022-10-16T14:29:26;21.10;99.90
57088;DHT22;42965;52.846;6.614;2022-10-16T14:31:58;21.20;99.90
57088;DHT22;42965;52.846;6.614;2022-10-16T14:34:37;21.10;99.90
57088;DHT22;42965;52.846;6.614;2022-10-16T14:37:19;21.20;99.90
57088;DHT22;42965;52.846;6.614;2022-10-16T14:39:52;21.00;99.90
57088;DHT22;42965;52.846;6.614;2022-10-16T14:42:21;20.60;99.90
57088;DHT22;42965;52.846;6.614;2022-10-16T14:44:51;20.20;99.90
57088;DHT22;42965;52.846;6.614;2022-10-16T14:47:23;20.00;99.90
57088;DHT22;42965;52.846;6.614;2022-10-16T14:49:52;19.70;99.90
57088;DHT22;42965;52.846;6.614;2022-10-16T14:52:21;19.50;99.90
57088;DHT22;42965;52.846;6.614;2022-10-16T14:54:51;19.50;99.90
57088;DHT22;42965;52.846;6.614;2022-10-16T14:57:26;19.40;99.90
57088;DHT22;42965;52.846;6.614;2022-10-16T14:59:54;19.30;99.90
57088;DHT22;42965;52.846;6.614;2022-10-16T15:02:30;19.20;99.90
57088;DHT22;42965;52.846;6.614;2022-10-16T15:04:59;19.00;99.90
57088;DHT22;42965;52.846;6.614;2022-10-16T15:07:28;18.90;99.90
57088;DHT22;42965;52.846;6.614;2022-10-16T15:09:54;18.80;99.90
57088;DHT22;42965;52.846;6.614;2022-10-16T15:12:23;18.70;99.90
57088;DHT22;42965;52.846;6.614;2022-10-16T15:14:49;18.60;99.90
57088;DHT22;42965;52.846;6.614;2022-10-16T15:17:15;18.50;99.90
57088;DHT22;42965;52.846;6.614;2022-10-16T15:19:43;18.30;99.90
57088;DHT22;42965;52.846;6.614;2022-10-16T15:22:11;18.20;99.90
57088;DHT22;42965;52.846;6.614;2022-10-16T15:24:37;18.10;99.90
57088;DHT22;42965;52.846;6.614;2022-10-16T15:27:03;17.90;99.90
57088;DHT22;42965;52.846;6.614;2022-10-16T15:29:30;17.80;99.90
57088;DHT22;42965;52.846;6.614;2022-10-16T15:31:57;17.70;99.90
57088;DHT22;42965;52.846;6.614;2022-10-16T15:34:23;17.60;99.90
57088;DHT22;42965;52.846;6.614;2022-10-16T15:36:50;17.40;99.90
57088;DHT22;42965;52.846;6.614;2022-10-16T15:39:18;17.30;99.90
57088;DHT22;42965;52.846;6.614;2022-10-16T15:41:47;17.10;99.90
57088;DHT22;42965;52.846;6.614;2022-10-16T15:44:17;17.20;99.90
57088;DHT22;42965;52.846;6.614;2022-10-16T15:46:43;17.10;99.90
57088;DHT22;42965;52.846;6.614;2022-10-16T15:49:13;16.90;99.90
57088;DHT22;42965;52.846;6.614;2022-10-16T15:51:40;16.90;99.90
57088;DHT22;42965;52.846;6.614;2022-10-16T15:54:07;16.80;99.90
57088;DHT22;42965;52.846;6.614;2022-10-16T15:56:34;16.60;99.90
57088;DHT22;42965;52.846;6.614;2022-10-16T15:59:03;16.50;99.90
57088;DHT22;42965;52.846;6.614;2022-10-16T16:01:35;16.40;99.90
57088;DHT22;42965;52.846;6.614;2022-10-16T16:04:01;16.40;99.90
57088;DHT22;42965;52.846;6.614;2022-10-16T16:06:27;16.30;99.90
57088;DHT22;42965;52.846;6.614;2022-10-16T16:08:54;16.20;99.90
57088;DHT22;42965;52.846;6.614;2022-10-16T16:11:21;16.10;99.90
57088;DHT22;42965;52.846;6.614;2022-10-16T16:13:49;16.00;99.90
57088;DHT22;42965;52.846;6.614;2022-10-16T16:16:17;16.00;99.90
57088;DHT22;42965;52.846;6.614;2022-10-16T16:18:43;15.90;99.90
57088;DHT22;42965;52.846;6.614;2022-10-16T16:21:13;15.70;99.90
57088;DHT22;42965;52.846;6.614;2022-10-16T16:23:39;15.70;99.90
57088;DHT22;42965;52.846;6.614;2022-10-16T16:26:14;15.60;99.90
57088;DHT22;42965;52.846;6.614;2022-10-16T16:28:42;15.60;99.90
57088;DHT22;42965;52.846;6.614;2022-10-16T16:31:09;15.50;99.90
57088;DHT22;42965;52.846;6.614;2022-10-16T16:33:36;15.40;99.90
57088;DHT22;42965;52.846;6.614;2022-10-16T16:36:04;15.30;99.90
57088;DHT22;42965;52.846;6.614;2022-10-16T16:38:33;15.20;99.90
57088;DHT22;42965;52.846;6.614;2022-10-16T16:41:00;15.20;99.90
57088;DHT22;42965;52.846;6.614;2022-10-16T16:43:36;15.10;99.90
57088;DHT22;42965;52.846;6.614;2022-10-16T16:46:02;15.10;99.90
57088;DHT22;42965;52.846;6.614;2022-10-16T16:48:28;15.10;99.90
57088;DHT22;42965;52.846;6.614;2022-10-16T16:50:55;14.90;99.90
57088;DHT22;42965;52.846;6.614;2022-10-16T16:53:22;14.90;99.90
57088;DHT22;42965;52.846;6.614;2022-10-16T16:55:48;14.80;99.90
57088;DHT22;42965;52.846;6.614;2022-10-16T16:58:16;14.70;99.90
57088;DHT22;42965;52.846;6.614;2022-10-16T17:00:46;14.70;99.90
57088;DHT22;42965;52.846;6.614;2022-10-16T17:03:12;14.60;99.90
57088;DHT22;42965;52.846;6.614;2022-10-16T17:05:38;14.50;99.90
57088;DHT22;42965;52.846;6.614;2022-10-16T17:08:08;14.50;99.90
57088;DHT22;42965;52.846;6.614;2022-10-16T17:10:42;14.40;99.90
57088;DHT22;42965;52.846;6.614;2022-10-16T17:13:08;14.40;99.90
57088;DHT22;42965;52.846;6.614;2022-10-16T17:15:35;14.40;99.90